Time;durP1;ratioP1;P1;durP2;ratioP2;P2;SDS_P1;SDS_P2;PMS_P1;PMS_P2;Temp;Humidity;BMP_temperature;BMP_pressure;BME280_temperature;BME280_humidity;BME280_pressure;Samples;Min_cycle;Max_cycle;Signal;HPM_P1;HPM_P2
2022/01/23 00:01:09;;;;;;;20.48;14.13;;;9.30;99.90;;;9.63;85.72;103438.63;5072185;28;20548;-61
2022/01/23 00:03:44;;;;;;;19.85;13.73;;;9.40;99.90;;;9.78;85.06;103452.47;5071746;28;20548;-61
2022/01/23 00:06:14;;;;;;;20.02;13.68;;;9.50;99.90;;;9.87;84.58;103451.94;5071891;28;20094;-62
2022/01/23 00:08:45;;;;;;;24.15;14.18;;;9.60;99.90;;;9.89;84.28;103456.44;5071661;28;20118;-61
2022/01/23 00:11:15;;;;;;;21.75;13.77;;;9.60;99.90;;;9.80;84.52;103460.44;5071618;28;20490;-61
2022/01/23 00:19:16;;;;;;;20.13;13.18;;;9.30;99.90;;;9.67;86.05;103455.50;5071635;28;20040;-62
2022/01/23 00:21:47;;;;;;;19.93;13.77;;;9.40;99.90;;;9.59;85.76;103455.19;5071520;28;20074;-61
2022/01/23 00:32:33;;;;;;;20.73;14.30;;;9.60;99.90;;;10.00;84.24;103448.94;5071845;28;20539;-62
2022/01/23 00:35:03;;;;;;;24.85;13.63;;;9.80;99.90;;;10.07;84.02;103452.69;5071743;28;20151;-62
2022/01/23 00:37:32;;;;;;;21.23;14.35;;;9.80;99.90;;;9.92;84.15;103440.69;5070320;28;20044;-62
2022/01/23 00:40:00;;;;;;;22.70;13.73;;;9.70;99.90;;;9.78;84.08;103404.88;5070268;28;20423;-62
2022/01/23 00:42:28;;;;;;;23.17;13.43;;;9.60;99.90;;;9.88;83.86;103440.50;5071658;28;20439;-61
2022/01/23 00:45:09;;;;;;;24.08;13.25;;;9.60;99.90;;;9.79;84.33;103419.00;5071710;28;20052;-62
2022/01/23 00:47:37;;;;;;;20.88;13.27;;;9.60;99.90;;;10.03;83.85;103439.38;5071707;28;20083;-62
2022/01/23 00:50:08;;;;;;;17.83;13.15;;;9.70;99.90;;;10.08;83.34;103443.94;5086912;28;20048;-62
2022/01/23 00:52:36;;;;;;;20.30;13.27;;;9.80;99.90;;;9.98;83.60;103443.59;5071629;28;20465;-62
2022/01/23 00:55:06;;;;;;;21.30;13.10;;;9.70;99.90;;;10.11;83.54;103436.16;5071277;28;20045;-62
2022/01/23 00:57:34;;;;;;;18.48;12.52;;;9.80;99.90;;;10.13;82.87;103437.09;5071246;28;20056;-62
2022/01/23 01:00:06;;;;;;;18.50;12.60;;;9.80;99.90;;;10.14;83.00;103431.00;5071443;28;20072;-62
2022/01/23 01:02:35;;;;;;;23.65;13.07;;;9.90;99.90;;;10.12;82.98;103446.81;5071939;28;20080;-62
2022/01/23 01:05:05;;;;;;;18.63;13.55;;;9.90;99.90;;;10.17;82.47;103425.81;5070062;28;20083;-62
2022/01/23 01:07:35;;;;;;;20.33;12.50;;;9.90;99.90;;;10.08;82.60;103422.78;5069898;28;20412;-62
2022/01/23 01:10:09;;;;;;;20.33;12.82;;;9.80;99.90;;;10.03;82.72;103420.84;5071369;28;20048;-62
2022/01/23 01:12:41;;;;;;;17.73;13.38;;;9.80;99.90;;;10.00;83.03;103425.13;5070025;28;20102;-62
2022/01/23 01:15:32;;;;;;;18.77;11.93;;;9.70;99.90;;;9.96;82.92;103429.41;5069985;28;20056;-62
2022/01/23 01:31:55;;;;;;;17.25;11.35;;;9.90;99.90;;;10.02;82.21;103420.81;5073563;28;20068;-62
2022/01/23 01:34:32;;;;;;;17.35;11.65;;;9.80;99.90;;;10.18;82.05;103444.38;5073553;28;20048;-62
2022/01/23 01:37:01;;;;;;;18.42;10.93;;;9.90;99.90;;;10.22;81.89;103443.66;5073416;28;20049;-62
2022/01/23 01:39:43;;;;;;;;;;;9.90;99.90;;;10.22;81.91;103437.47;5073798;28;20071;-62
2022/01/23 01:42:12;;;;;;;16.10;11.20;;;10.00;99.90;;;10.14;82.12;103449.50;5073337;28;19925;-62
2022/01/23 01:44:40;;;;;;;19.20;10.95;;;9.90;99.90;;;10.20;81.73;103450.63;5072939;28;20059;-62
2022/01/23 01:47:30;;;;;;;16.75;11.45;;;9.90;99.90;;;10.20;82.05;103445.34;5073157;28;20082;-62
2022/01/23 01:50:09;;;;;;;20.90;11.18;;;9.90;99.90;;;10.22;81.83;103453.34;5074689;28;20457;-61
2022/01/23 01:52:38;;;;;;;16.42;10.43;;;9.90;99.90;;;10.23;81.51;103448.13;5073174;28;20140;-61
2022/01/23 01:55:20;;;;;;;19.20;11.05;;;9.90;99.90;;;10.25;81.53;103453.44;5073181;28;20056;-62
2022/01/23 01:58:00;;;;;;;18.90;11.35;;;10.00;99.90;;;10.22;81.50;103443.66;5073193;28;20508;-62
2022/01/23 02:00:54;;;;;;;15.00;11.02;;;9.90;99.90;;;10.25;81.63;103453.44;5082580;28;20427;-62
2022/01/23 02:08:19;;;;;;;17.20;10.85;;;10.00;99.90;;;10.13;81.31;103434.47;5073079;28;20098;-62
2022/01/23 02:09:33;;;;;;;13.17;10.67;;;10.00;99.90;;;10.28;81.22;103456.22;5073341;28;20147;-62
2022/01/23 02:12:23;;;;;;;16.60;10.68;;;10.00;99.90;;;10.28;80.94;103469.47;5089812;28;20633;-61
2022/01/23 02:15:13;;;;;;;15.35;11.40;;;10.00;99.90;;;10.25;80.80;103449.06;5074331;28;20095;-62
2022/01/23 02:17:56;;;;;;;16.25;11.00;;;10.00;99.90;;;10.27;80.93;103457.06;5073125;28;20531;-62
2022/01/23 02:23:52;;;;;;;14.43;11.20;;;9.90;99.90;;;10.18;81.15;103451.44;5049011;28;20052;-61
2022/01/23 02:52:00;;;;;;;16.23;10.60;;;9.90;99.90;;;10.17;81.47;103423.16;5014286;28;20057;-61
2022/01/23 02:57:21;;;;;;;19.10;11.95;;;9.90;99.90;;;10.19;81.25;103413.53;5073081;28;20557;-62
2022/01/23 02:59:51;;;;;;;18.23;12.05;;;9.90;99.90;;;10.26;81.34;103411.19;5088790;28;20060;-61
2022/01/23 03:02:42;;;;;;;15.95;10.77;;;10.00;99.90;;;10.29;81.00;103413.03;5073175;28;20528;-61
2022/01/23 03:05:37;;;;;;;17.83;11.02;;;10.00;99.90;;;10.29;81.19;103413.03;5072729;28;20448;-62
2022/01/23 03:08:20;;;;;;;17.02;10.68;;;10.00;99.90;;;10.22;81.08;103406.63;5073031;28;20132;-62
2022/01/23 03:11:00;;;;;;;18.02;11.15;;;9.90;99.90;;;10.08;81.19;103415.75;5072877;28;20173;-62
2022/01/23 03:13:49;;;;;;;15.73;11.05;;;9.90;99.90;;;9.96;81.42;103418.84;5072806;28;20048;-62
2022/01/23 03:24:47;;;;;;;21.65;12.18;;;9.50;99.90;;;9.85;83.05;103401.63;5067847;28;20098;-62
2022/01/23 03:27:51;;;;;;;15.00;12.10;;;9.50;99.90;;;9.97;82.67;103404.75;5072722;28;20081;-62
2022/01/23 03:30:21;;;;;;;20.52;12.13;;;9.70;99.90;;;9.54;82.42;103323.75;5071281;28;20072;-62
2022/01/23 03:32:51;;;;;;;17.20;10.98;;;9.70;99.90;;;10.03;82.10;103414.66;5072720;28;20072;-62
2022/01/23 03:35:22;;;;;;;18.85;11.73;;;9.70;99.90;;;10.09;82.25;103421.94;5072343;28;20068;-62
2022/01/23 03:37:50;;;;;;;19.00;11.85;;;9.80;99.90;;;10.02;82.30;103407.59;5072679;28;20064;-62
2022/01/23 03:40:20;;;;;;;18.33;11.88;;;9.80;99.90;;;10.09;82.25;103422.84;5072269;28;20044;-62
2022/01/23 03:42:56;;;;;;;17.58;12.57;;;9.80;99.90;;;10.11;81.92;103423.84;5072624;28;20072;-62
2022/01/23 03:45:52;;;;;;;15.77;11.38;;;9.80;99.90;;;10.08;81.97;103434.28;5071133;28;20076;-62
2022/01/23 03:51:06;;;;;;;21.23;12.35;;;9.80;99.90;;;10.12;81.83;103425.66;5070955;28;20102;-62
2022/01/23 03:53:42;;;;;;;19.23;13.00;;;9.80;99.90;;;10.16;81.59;103431.94;5071318;28;20052;-62
2022/01/23 03:56:10;;;;;;;19.77;13.15;;;9.90;99.90;;;10.11;82.34;103428.22;5070831;28;20080;-61
2022/01/23 03:58:43;;;;;;;17.85;12.55;;;9.80;99.90;;;10.17;82.17;103424.06;5087915;28;20056;-62
2022/01/23 04:01:18;;;;;;;19.33;12.57;;;9.90;99.90;;;10.06;82.17;103424.47;5070734;28;20071;-61
2022/01/23 04:03:50;;;;;;;17.88;12.45;;;9.80;99.90;;;9.97;82.03;103403.84;5070795;28;20140;-62
2022/01/23 04:06:18;;;;;;;19.00;12.20;;;9.80;99.90;;;9.99;82.36;103426.88;5070620;28;20561;-62
2022/01/23 04:08:48;;;;;;;18.80;13.77;;;9.70;99.90;;;9.94;81.95;103424.88;5070286;28;20048;-62
2022/01/23 04:11:18;;;;;;;20.83;13.93;;;9.60;99.90;;;9.66;82.72;103425.53;5087551;28;20125;-62
2022/01/23 04:13:53;;;;;;;16.48;14.27;;;9.50;99.90;;;9.24;82.96;103343.63;5070478;28;20495;-61
2022/01/23 04:19:19;;;;;;;21.45;14.18;;;9.40;99.90;;;9.71;83.49;103434.56;5067060;28;20060;-62
2022/01/23 05:00:51;;;;;;;24.10;15.65;;;9.00;99.90;;;9.56;84.84;103441.84;5071599;28;20135;-62
2022/01/23 05:06:23;;;;;;;22.20;16.58;;;9.20;99.90;;;9.53;84.83;103439.09;5075611;28;20056;-62
2022/01/23 05:08:58;;;;;;;22.45;15.80;;;9.30;99.90;;;9.61;84.34;103448.25;5074246;28;20102;-62
2022/01/23 05:11:48;;;;;;;20.85;15.07;;;9.30;99.90;;;9.72;84.56;103441.63;5075381;28;20048;-62
2022/01/23 05:14:28;;;;;;;21.73;16.73;;;9.40;99.90;;;9.78;83.62;103443.63;5074433;28;20074;-62
2022/01/23 05:16:58;;;;;;;21.88;15.40;;;9.50;99.90;;;9.80;83.67;103447.22;5075800;28;20049;-61
2022/01/23 05:19:28;;;;;;;22.77;16.85;;;9.50;99.90;;;9.77;83.76;103429.53;5073634;28;20068;-61
2022/01/23 05:24:41;;;;;;;24.65;16.73;;;9.60;99.90;;;9.82;83.30;103441.16;5073295;28;20416;-61
2022/01/23 05:27:11;;;;;;;24.27;15.98;;;9.60;99.90;;;9.86;83.59;103443.09;5075066;28;20072;-62
2022/01/23 05:29:41;;;;;;;19.87;15.63;;;9.60;99.90;;;9.75;83.46;103428.56;5075078;28;20075;-62
2022/01/23 05:32:12;;;;;;;23.23;17.63;;;9.60;99.90;;;9.89;83.24;103434.41;5075048;28;20082;-62
2022/01/23 05:34:44;;;;;;;26.98;17.38;;;9.60;99.90;;;9.95;83.18;103440.81;5073480;28;20144;-62
2022/01/23 05:37:18;;;;;;;21.70;17.20;;;9.60;99.90;;;10.00;82.79;103441.00;5090441;28;20047;-61
2022/01/23 05:39:49;;;;;;;21.92;18.02;;;9.70;99.90;;;10.07;82.65;103439.47;5090337;28;20131;-62
2022/01/23 05:42:18;;;;;;;26.02;18.75;;;9.80;99.90;;;10.09;82.30;103433.41;5072976;28;20079;-62
2022/01/23 05:44:46;;;;;;;25.58;17.50;;;9.80;99.90;;;10.09;82.15;103427.22;5072910;28;20048;-62
2022/01/23 05:47:15;;;;;;;25.50;19.85;;;9.80;99.90;;;10.11;82.22;103434.41;5073504;28;20044;-62
2022/01/23 05:50:11;;;;;;;27.42;18.45;;;9.80;99.90;;;10.08;82.01;103436.00;5072380;28;20056;-62
2022/01/23 05:52:46;;;;;;;24.83;17.35;;;9.80;99.90;;;9.98;82.54;103443.59;5074584;28;20056;-62
2022/01/23 05:55:41;;;;;;;27.55;19.13;;;9.70;99.90;;;9.95;82.59;103438.16;5074297;28;20604;-62
2022/01/23 05:58:45;;;;;;;25.40;16.73;;;9.70;99.90;;;9.83;82.67;103426.22;5072731;28;20122;-63
2022/01/23 06:01:14;;;;;;;25.20;17.98;;;9.60;99.90;;;9.88;82.75;103436.13;5089813;28;20063;-63
2022/01/23 06:03:45;;;;;;;30.73;19.23;;;9.60;99.90;;;9.89;82.53;103422.06;5073094;28;20512;-62
2022/01/23 06:06:17;;;;;;;29.90;21.80;;;9.60;99.90;;;10.01;82.56;103432.22;5072966;28;20127;-63
2022/01/23 06:08:46;;;;;;;31.07;21.80;;;9.70;99.90;;;10.08;82.53;103431.63;5072519;28;20049;-62
2022/01/23 06:11:15;;;;;;;27.55;20.55;;;9.80;99.90;;;10.10;82.69;103437.00;5072488;28;20443;-63
2022/01/23 06:13:43;;;;;;;33.08;22.02;;;9.80;99.90;;;10.15;82.26;103432.78;5073816;28;20501;-62
2022/01/23 06:16:14;;;;;;;27.08;19.80;;;9.80;99.90;;;10.16;82.20;103434.59;5072481;28;20056;-62
2022/01/23 06:18:53;;;;;;;30.02;19.63;;;9.90;99.90;;;10.04;81.83;103443.81;5072791;28;20135;-62
2022/01/23 06:21:29;;;;;;;26.27;19.25;;;9.80;99.90;;;9.96;82.02;103439.06;5074072;28;20051;-62
2022/01/23 06:24:06;;;;;;;22.83;18.13;;;9.70;99.90;;;9.79;82.44;103414.59;5073466;28;20134;-62
2022/01/23 06:27:13;;;;;;;26.38;19.65;;;9.70;99.90;;;9.94;82.31;103427.53;5031463;28;20050;-62
2022/01/23 06:29:45;;;;;;;28.02;20.45;;;9.70;99.90;;;9.56;82.38;103362.56;5031421;28;20054;-62
2022/01/23 06:32:14;;;;;;;31.60;21.27;;;9.70;99.90;;;9.97;82.41;103428.53;5052954;28;20447;-62
2022/01/23 06:34:43;;;;;;;30.23;21.15;;;9.70;99.90;;;9.94;82.81;103417.88;5073639;28;20049;-62
2022/01/23 06:37:13;;;;;;;28.17;21.48;;;9.70;99.90;;;10.11;82.67;103437.06;5073513;28;20039;-62
2022/01/23 06:39:41;;;;;;;31.03;21.00;;;9.80;99.90;;;10.13;82.39;103435.38;5072589;28;20114;-62
2022/01/23 06:42:13;;;;;;;26.83;19.92;;;9.80;99.90;;;10.11;81.92;103441.44;5072524;28;20841;-62
2022/01/23 06:45:00;;;;;;;29.08;21.05;;;9.80;99.90;;;10.09;82.26;103448.38;5073823;28;20059;-62
2022/01/23 06:47:29;;;;;;;28.92;21.77;;;9.80;99.90;;;10.09;82.47;103448.38;5072136;28;20588;-62
2022/01/23 06:49:57;;;;;;;26.25;20.92;;;9.80;99.90;;;10.00;82.20;103451.56;5072184;28;20122;-62
2022/01/23 06:52:28;;;;;;;30.15;20.40;;;9.70;99.90;;;9.98;82.48;103447.97;5088939;28;20102;-62
2022/01/23 06:54:59;;;;;;;29.50;21.23;;;9.70;99.90;;;10.03;82.25;103462.25;5072139;28;20048;-62
2022/01/23 06:57:27;;;;;;;27.48;20.70;;;9.70;99.90;;;10.03;82.22;103463.16;5071803;28;20048;-62
2022/01/23 06:59:56;;;;;;;28.05;20.17;;;9.70;99.90;;;10.00;82.38;103465.72;5072092;28;20147;-62
2022/01/23 07:02:45;;;;;;;26.42;19.50;;;9.70;99.90;;;9.88;82.26;103462.56;5072974;28;20053;-62
2022/01/23 07:05:27;;;;;;;23.17;19.02;;;9.60;99.90;;;9.55;82.39;103396.88;5071831;28;20048;-62
2022/01/23 07:08:08;;;;;;;25.73;19.15;;;9.60;99.90;;;9.86;82.38;103471.28;5071747;28;20850;-62
2022/01/23 07:10:46;;;;;;;24.80;19.17;;;9.50;99.90;;;9.82;82.72;103471.97;5088437;28;20053;-62
2022/01/23 07:13:26;;;;;;;27.25;19.90;;;9.50;99.90;;;9.80;82.80;103490.44;5071548;28;20044;-61
2022/01/23 07:16:08;;;;;;;26.50;20.75;;;9.50;99.90;;;9.81;83.09;103475.47;5071667;28;20056;-62
2022/01/23 07:19:00;;;;;;;27.25;20.13;;;9.50;99.90;;;9.73;83.07;103475.19;5053029;28;20072;-62
2022/01/23 07:21:34;;;;;;;26.20;20.17;;;9.50;99.90;;;9.76;82.93;103475.28;5071136;28;20054;-62
2022/01/23 07:24:05;;;;;;;24.88;20.25;;;9.50;99.90;;;9.12;83.13;103357.25;5070325;28;20110;-61
2022/01/23 07:26:35;;;;;;;;;;;9.40;99.90;;;9.71;83.75;103471.56;5073271;28;20048;-62
2022/01/23 07:29:06;;;;;;;25.13;18.67;;;9.50;99.90;;;9.67;83.57;103461.72;5070896;28;19999;-62
2022/01/23 07:34:23;;;;;;;26.63;18.48;;;9.50;99.90;;;9.87;83.28;103475.72;5072395;28;20152;-61
2022/01/23 07:36:52;;;;;;;23.92;19.30;;;9.50;99.90;;;9.90;83.04;103487.31;5070891;28;20462;-62
2022/01/23 07:39:55;;;;;;;27.80;20.30;;;9.60;99.90;;;9.94;82.83;103491.91;5071969;28;20436;-62
2022/01/23 07:42:39;;;;;;;26.73;19.15;;;9.60;99.90;;;9.97;82.27;103497.31;5071126;28;20052;-62
2022/01/23 07:45:26;;;;;;;24.77;18.52;;;9.60;99.90;;;10.02;82.56;103508.06;5072182;28;20055;-62
2022/01/23 07:48:13;;;;;;;25.70;19.38;;;9.70;99.90;;;10.02;82.21;103510.72;5071040;28;20044;-61
2022/01/23 07:51:11;;;;;;;26.55;19.50;;;9.70;99.90;;;9.91;82.36;103496.16;5034825;28;20399;-62
2022/01/23 07:53:56;;;;;;;26.90;19.45;;;9.70;99.90;;;9.99;82.36;103507.94;5071044;28;20048;-62
2022/01/23 07:57:01;;;;;;;23.67;19.05;;;9.70;99.90;;;9.99;82.33;103500.91;5049774;28;20156;-62
2022/01/23 07:59:50;;;;;;;25.08;18.90;;;9.70;99.90;;;9.98;81.92;103507.06;5069585;28;20135;-61
2022/01/23 08:02:43;;;;;;;22.20;17.33;;;9.70;99.90;;;10.00;82.01;103508.03;5071761;28;20060;-62
2022/01/23 08:05:50;;;;;;;23.95;17.75;;;9.70;99.90;;;10.00;82.15;103510.66;5072015;28;20056;-61
2022/01/23 08:08:37;;;;;;;22.83;17.13;;;9.70;99.90;;;9.99;82.13;103516.78;5072180;28;20374;-62
2022/01/23 08:11:11;;;;;;;25.35;17.98;;;9.70;99.90;;;9.91;82.03;103509.41;5072259;28;20518;-62
2022/01/23 08:13:41;;;;;;;26.67;18.92;;;9.70;99.90;;;9.99;81.99;103522.06;5072066;28;20468;-62
2022/01/23 08:16:10;;;;;;;24.30;18.48;;;9.70;99.90;;;9.84;81.89;103495.00;5071764;28;20093;-62
2022/01/23 08:18:39;;;;;;;26.35;19.30;;;9.70;99.90;;;10.00;82.04;103517.69;5071706;28;20071;-62
2022/01/23 08:21:07;;;;;;;23.20;18.20;;;9.70;99.90;;;9.98;81.80;103529.94;5071593;28;20096;-62
2022/01/23 08:23:54;;;;;;;25.83;18.30;;;9.70;99.90;;;9.99;81.98;103522.06;5071298;28;20106;-62
2022/01/23 08:26:24;;;;;;;24.58;17.52;;;9.70;99.90;;;10.03;82.01;103538.94;5071668;28;20052;-62
2022/01/23 08:28:53;;;;;;;27.27;18.15;;;9.70;99.90;;;9.90;81.99;103524.34;5071706;28;20044;-62
2022/01/23 08:31:22;;;;;;;24.58;18.23;;;9.70;99.90;;;9.56;81.65;103439.19;5071843;28;20135;-62
2022/01/23 08:33:50;;;;;;;23.95;18.80;;;9.70;99.90;;;10.06;81.73;103527.59;5071266;28;20051;-62
2022/01/23 08:36:20;;;;;;;23.02;18.88;;;9.70;99.90;;;10.01;81.77;103525.66;5071264;28;20476;-62
2022/01/23 08:38:48;;;;;;;27.05;18.17;;;9.80;99.90;;;10.03;81.99;103533.66;5071343;28;20490;-62
2022/01/23 08:44:04;;;;;;;25.73;18.63;;;9.70;99.90;;;9.99;82.39;103537.94;5071196;28;20048;-61
2022/01/23 08:46:32;;;;;;;21.98;17.38;;;9.70;99.90;;;10.04;82.30;103532.84;5070178;28;20147;-61
2022/01/23 08:49:01;;;;;;;29.30;17.73;;;9.70;99.90;;;10.05;82.03;103534.63;5071198;28;20047;-60
2022/01/23 08:51:29;;;;;;;25.48;18.77;;;9.70;99.90;;;10.07;82.30;103539.97;5071365;28;20079;-61
2022/01/23 08:53:59;;;;;;;23.10;17.60;;;9.80;99.90;;;10.06;81.97;103539.09;5071227;28;20102;-61
2022/01/23 08:56:27;;;;;;;24.95;19.05;;;9.80;99.90;;;9.61;81.99;103445.59;5070931;28;20102;-61
2022/01/23 08:58:56;;;;;;;23.20;18.08;;;9.80;99.90;;;10.10;81.77;103534.84;5069956;28;20470;-61
2022/01/23 09:01:26;;;;;;;25.63;18.08;;;9.80;99.90;;;10.10;81.88;103526.91;5070977;28;20121;-61
2022/01/23 09:03:55;;;;;;;29.05;18.83;;;9.80;99.90;;;10.13;81.81;103524.38;5071686;28;20040;-62
2022/01/23 09:06:24;;;;;;;25.08;18.08;;;9.90;99.90;;;10.14;81.50;103523.56;5071155;28;20100;-62
2022/01/23 09:08:54;;;;;;;23.73;18.38;;;9.90;99.90;;;10.15;81.73;103530.63;5071072;28;20101;-62
2022/01/23 09:11:27;;;;;;;23.38;19.02;;;9.90;99.90;;;10.08;81.72;103524.19;5071012;28;20136;-62
2022/01/23 09:14:06;;;;;;;24.38;18.38;;;9.90;99.90;;;10.13;81.99;103529.69;5071081;28;20072;-62
2022/01/23 09:16:40;;;;;;;26.27;18.25;;;9.90;99.90;;;10.21;81.70;103541.47;5071109;28;20048;-61
2022/01/23 09:19:09;;;;;;;23.60;18.48;;;9.90;99.90;;;9.97;81.77;103504.31;5071100;28;20040;-60
2022/01/23 09:21:39;;;;;;;26.98;19.02;;;9.90;99.90;;;10.20;81.58;103535.25;5071218;28;20105;-61
2022/01/23 09:24:08;;;;;;;22.48;19.02;;;9.90;99.90;;;10.24;81.75;103538.97;5070772;28;20568;-60
2022/01/23 09:26:37;;;;;;;25.70;20.23;;;9.90;99.90;;;10.25;81.51;103533.72;5086576;28;20052;-60
2022/01/23 09:29:14;;;;;;;22.98;19.08;;;9.90;99.90;;;10.16;81.18;103511.31;5070957;28;20083;-61
2022/01/23 09:31:52;;;;;;;26.75;19.98;;;10.00;99.90;;;10.32;81.12;103532.19;5071040;28;20045;-60
2022/01/23 09:34:23;;;;;;;27.65;20.80;;;10.00;99.90;;;10.31;81.37;103533.97;5071215;28;20045;-60
2022/01/23 09:36:53;;;;;;;26.65;19.40;;;10.00;99.90;;;10.34;81.17;103541.09;5071114;28;20044;-61
2022/01/23 09:39:23;;;;;;;27.10;20.27;;;10.00;99.90;;;10.34;80.91;103533.16;5069768;28;20415;-59
2022/01/23 09:42:05;;;;;;;26.50;21.17;;;10.10;99.90;;;10.34;81.24;103549.03;5070848;28;20113;-60
2022/01/23 09:44:43;;;;;;;24.42;20.73;;;10.10;99.90;;;10.32;81.47;103551.63;5069572;28;20044;-62
2022/01/23 09:47:15;;;;;;;27.70;21.50;;;10.10;99.90;;;10.23;81.24;103543.34;5071283;28;20110;-61
2022/01/23 09:49:44;;;;;;;29.13;21.65;;;10.10;99.90;;;10.29;81.21;103563.84;5074308;28;20459;-60
2022/01/23 09:52:14;;;;;;;30.90;22.50;;;10.10;99.90;;;10.32;81.79;103556.00;5074263;28;20052;-60
2022/01/23 09:54:53;;;;;;;31.20;21.95;;;10.00;99.90;;;10.32;81.49;103556.00;5073006;28;20048;-61
2022/01/23 09:57:24;;;;;;;26.92;20.98;;;10.10;99.90;;;10.39;81.25;103558.09;5074247;28;20072;-61
2022/01/23 09:59:55;;;;;;;28.25;20.92;;;10.10;99.90;;;10.42;81.07;103560.84;5074733;28;20044;-61
2022/01/23 10:02:25;;;;;;;24.35;20.83;;;10.10;99.90;;;10.42;81.27;103569.69;5089643;28;20391;-66
2022/01/23 10:04:55;;;;;;;26.95;21.90;;;10.10;99.90;;;10.38;81.01;103557.16;5073996;28;20402;-60
2022/01/23 10:07:23;;;;;;;27.67;22.80;;;10.10;99.90;;;10.39;81.34;103553.69;5072621;28;20443;-60
2022/01/23 10:09:56;;;;;;;31.35;22.98;;;10.20;99.90;;;10.44;80.74;103551.22;5074434;28;20113;-60
2022/01/23 10:12:26;;;;;;;30.40;23.27;;;10.10;99.90;;;10.45;80.94;103563.63;5074211;28;20498;-61
2022/01/23 10:14:55;;;;;;;32.42;23.30;;;10.20;99.90;;;10.45;80.77;103560.97;5074335;28;20048;-60
2022/01/23 10:17:25;;;;;;;30.98;24.40;;;10.20;99.90;;;10.45;80.65;103561.84;5073747;28;20087;-61
2022/01/23 10:19:53;;;;;;;33.78;25.25;;;10.20;99.90;;;10.50;80.50;103564.69;5073914;28;20074;-61
2022/01/23 10:22:22;;;;;;;35.97;26.83;;;10.20;99.90;;;10.42;80.66;103563.47;5073690;28;20053;-61
2022/01/23 10:24:51;;;;;;;32.50;25.88;;;10.20;99.90;;;10.47;80.52;103557.53;5073927;28;20132;-62
2022/01/23 10:27:22;;;;;;;33.38;26.20;;;10.20;99.90;;;10.51;80.47;103555.91;5073640;28;20079;-62
2022/01/23 10:29:50;;;;;;;32.25;26.20;;;10.20;99.90;;;10.50;80.37;103583.22;5072392;28;20072;-61
2022/01/23 10:32:21;;;;;;;34.90;25.83;;;10.30;99.90;;;10.33;80.38;103536.66;5073560;28;20120;-62
2022/01/23 10:34:54;;;;;;;33.45;24.77;;;10.20;99.90;;;10.47;80.57;103554.00;5073485;28;20516;-61
2022/01/23 10:37:34;;;;;;;32.55;25.50;;;10.20;99.90;;;10.51;80.34;103558.56;5073449;28;20047;-62
2022/01/23 10:40:12;;;;;;;30.35;24.75;;;10.30;99.90;;;10.52;80.10;103558.63;5073482;28;20051;-60
2022/01/23 10:46:33;;;;;;;31.42;24.63;;;10.20;99.90;;;10.55;80.27;103555.19;5073855;28;20055;-59
2022/01/23 10:48:36;;;;;;;;;;;10.30;99.90;;;10.55;80.06;103556.06;5073805;28;20044;-60
2022/01/23 10:51:26;;;;;;;30.20;23.35;;;10.30;99.90;;;10.56;79.65;103557.91;5071582;28;19920;-62
2022/01/23 10:54:07;;;;;;;34.50;23.50;;;10.30;99.90;;;10.56;79.75;103551.69;5073443;28;20401;-61
2022/01/23 10:56:40;;;;;;;31.23;23.77;;;10.30;99.90;;;10.52;79.44;103547.13;5073406;28;20436;-62
2022/01/23 10:59:11;;;;;;;38.72;26.55;;;10.30;99.90;;;10.46;79.50;103539.84;5072066;28;20116;-63
2022/01/23 11:01:40;;;;;;;31.52;24.77;;;10.20;99.90;;;10.38;79.79;103537.75;5073159;28;20068;-63
2022/01/23 11:04:13;;;;;;;32.03;24.57;;;10.10;99.90;;;10.41;79.60;103538.78;5071299;28;20052;-61
2022/01/23 11:06:59;;;;;;;34.75;25.70;;;10.10;99.90;;;10.35;79.62;103527.97;5072751;28;20114;-61
2022/01/23 11:09:32;;;;;;;31.90;23.42;;;10.10;99.90;;;10.49;79.49;103539.09;5072865;28;20058;-62
2022/01/23 11:12:05;;;;;;;31.95;24.00;;;10.20;99.90;;;10.49;79.57;103536.44;5072824;28;20124;-61
2022/01/23 11:17:23;;;;;;;30.48;23.80;;;10.20;99.90;;;10.52;79.40;103539.19;5073010;28;20056;-60
2022/01/23 11:19:57;;;;;;;28.50;21.60;;;10.20;99.90;;;10.33;79.24;103489.03;5072517;28;20082;-62
2022/01/23 11:22:30;;;;;;;28.73;22.50;;;10.30;99.90;;;10.53;79.21;103522.47;5072716;28;20074;-63
2022/01/23 11:25:02;;;;;;;31.27;22.17;;;10.30;99.90;;;10.51;79.17;103526.81;5072788;28;20122;-63
2022/01/23 11:27:38;;;;;;;31.90;23.73;;;10.30;99.90;;;10.53;78.90;103531.28;5072679;28;20048;-65
2022/01/23 11:30:12;;;;;;;28.73;22.98;;;10.30;99.90;;;10.57;78.81;103532.31;5072657;28;20485;-63
2022/01/23 11:32:42;;;;;;;31.70;22.75;;;10.30;99.90;;;10.49;78.70;103517.91;5073078;28;20170;-63
2022/01/23 11:35:14;;;;;;;30.48;23.33;;;10.30;99.90;;;10.59;78.82;103525.31;5072346;28;20406;-64
2022/01/23 11:37:48;;;;;;;28.33;22.45;;;10.30;99.90;;;10.52;78.56;103513.63;5072608;28;20048;-64
2022/01/23 11:40:38;;;;;;;30.98;23.23;;;10.30;99.90;;;10.49;78.33;103508.19;5072741;28;20044;-63
2022/01/23 11:54:11;;;;;;;29.40;22.58;;;10.30;99.90;;;10.64;78.07;103510.53;5071982;28;20068;-66
2022/01/23 11:56:45;;;;;;;34.50;22.43;;;10.40;99.90;;;10.68;77.90;103515.13;5071985;28;20075;-62
2022/01/23 11:59:35;;;;;;;29.98;22.98;;;10.40;99.90;;;10.63;77.65;103495.50;5072081;28;20143;-61
2022/01/23 12:02:27;;;;;;;31.27;21.02;;;10.40;99.90;;;10.63;77.29;103503.44;5071929;28;20040;-62
2022/01/23 12:05:32;;;;;;;28.52;21.27;;;10.40;99.90;;;10.58;77.15;103491.78;5072396;28;20048;-61
2022/01/23 12:08:34;;;;;;;28.23;21.30;;;10.40;99.90;;;10.63;77.04;103512.28;5071782;28;20547;-61
2022/01/23 12:17:20;;;;;;;32.40;22.50;;;10.30;99.90;;;10.52;76.48;103476.56;5071864;28;20036;-63
2022/01/23 12:19:52;;;;;;;31.20;22.60;;;10.40;99.90;;;10.67;76.44;103495.66;5071862;28;20044;-62
2022/01/23 12:22:37;;;;;;;31.05;22.85;;;10.40;99.90;;;10.67;76.35;103489.47;5071847;28;20123;-62
2022/01/23 12:25:20;;;;;;;30.08;22.85;;;10.40;99.90;;;10.70;75.98;103487.81;5072219;28;20447;-63
2022/01/23 12:28:21;;;;;;;32.88;23.90;;;10.50;99.90;;;10.74;76.21;103492.41;5072244;28;20040;-62
2022/01/23 12:30:53;;;;;;;34.00;23.25;;;10.50;99.90;;;10.78;76.06;103488.16;5071633;28;20072;-62
2022/01/23 12:33:36;;;;;;;31.95;23.33;;;10.50;99.90;;;10.74;76.09;103478.28;5071473;28;20393;-62
2022/01/23 12:36:08;;;;;;;34.70;23.80;;;10.50;99.90;;;10.79;75.80;103490.84;5071765;28;20057;-62
2022/01/23 12:38:41;;;;;;;31.35;22.52;;;10.50;99.90;;;10.80;75.86;103491.75;5071574;28;20111;-63
2022/01/23 12:41:32;;;;;;;33.28;22.92;;;10.50;99.90;;;10.74;75.59;103480.94;5071435;28;20052;-62
2022/01/23 12:44:06;;;;;;;25.42;20.88;;;10.50;99.90;;;10.76;75.13;103482.75;5071515;28;20041;-62
2022/01/23 12:46:39;;;;;;;26.55;20.17;;;10.50;99.90;;;10.70;74.45;103477.25;5069781;28;20052;-62
2022/01/23 12:49:27;;;;;;;25.52;19.85;;;10.40;99.90;;;10.66;74.20;103482.38;5071209;28;20125;-63
2022/01/23 12:52:15;;;;;;;28.65;21.05;;;10.40;99.90;;;10.71;74.00;103483.44;5069625;28;20098;-62
2022/01/23 12:54:57;;;;;;;27.88;20.85;;;10.40;99.90;;;10.72;74.00;103474.69;5071402;28;20080;-62
2022/01/23 12:57:35;;;;;;;25.85;20.02;;;10.40;99.90;;;10.77;73.88;103478.38;5071394;28;20041;-62
2022/01/23 13:00:11;;;;;;;29.50;19.30;;;10.40;99.90;;;10.74;73.65;103471.22;5071230;28;20068;-63
2022/01/23 13:02:44;;;;;;;26.90;20.08;;;10.50;99.90;;;10.75;73.39;103474.78;5070932;28;20044;-62
2022/01/23 13:05:15;;;;;;;25.80;19.25;;;10.50;99.90;;;10.71;73.22;103467.56;5070930;28;20458;-62
2022/01/23 13:08:01;;;;;;;23.17;18.92;;;10.50;99.90;;;10.68;72.72;103468.34;5071349;28;20049;-62
2022/01/23 13:10:51;;;;;;;24.85;18.77;;;10.40;99.90;;;10.70;72.48;103468.41;5070879;28;20491;-61
2022/01/23 13:13:34;;;;;;;25.10;19.38;;;10.40;99.90;;;10.76;72.30;103477.47;5071201;28;20097;-62